createdAt,value
2022-11-04T00:00:00.442Z,11.20
2022-11-04T00:02:30.037Z,11.20
2022-11-04T00:04:59.738Z,11.20
2022-11-04T00:07:45.183Z,11.20
2022-11-04T00:10:15.357Z,11.20
2022-11-04T00:12:43.714Z,11.20
2022-11-04T00:15:29.421Z,11.30
2022-11-04T00:17:56.517Z,11.30
2022-11-04T00:20:44.413Z,11.30
2022-11-04T00:23:29.881Z,11.30
2022-11-04T00:26:15.210Z,11.20
2022-11-04T00:28:45.336Z,11.20
2022-11-04T00:31:33.817Z,11.20
2022-11-04T00:34:03.383Z,11.20
2022-11-04T00:36:30.386Z,11.20
2022-11-04T00:38:57.478Z,11.20
2022-11-04T00:41:27.715Z,11.20
2022-11-04T00:44:05.579Z,11.20
2022-11-04T00:46:33.948Z,11.10
2022-11-04T00:49:03.846Z,11.10
2022-11-04T00:51:31.068Z,11.10
2022-11-04T00:54:03.526Z,11.10
2022-11-04T00:56:30.820Z,11.00
2022-11-04T00:59:00.289Z,11.00
2022-11-04T01:01:27.424Z,11.00
2022-11-04T01:03:57.306Z,11.00
2022-11-04T01:06:26.526Z,10.90
2022-11-04T01:09:01.880Z,10.80
2022-11-04T01:11:29.682Z,10.70
2022-11-04T01:13:57.891Z,10.60
2022-11-04T01:18:55.708Z,10.40
2022-11-04T01:21:24.154Z,10.40
2022-11-04T01:23:53.931Z,10.30
2022-11-04T01:26:26.925Z,10.20
2022-11-04T01:28:55.292Z,10.20
2022-11-04T01:31:25.439Z,10.10
2022-11-04T01:33:56.247Z,10.10
2022-11-04T01:36:24.041Z,10.00
2022-11-04T01:38:51.659Z,10.00
2022-11-04T01:41:24.351Z,10.00
2022-11-04T01:43:54.119Z,10.00
2022-11-04T01:46:46.195Z,10.00
2022-11-04T01:49:27.687Z,10.00
2022-11-04T01:52:05.898Z,10.00
2022-11-04T01:54:34.842Z,10.00
2022-11-04T01:57:06.287Z,9.90
2022-11-04T01:59:39.985Z,10.00
2022-11-04T02:02:08.052Z,10.00
2022-11-04T02:04:36.207Z,10.00
2022-11-04T02:07:07.226Z,10.10
2022-11-04T02:09:36.299Z,10.10
2022-11-04T02:12:35.979Z,10.10
2022-11-04T02:15:03.636Z,10.20
2022-11-04T02:17:57.611Z,10.20
2022-11-04T02:20:34.447Z,10.20
2022-11-04T02:23:24.171Z,10.20
2022-11-04T02:26:03.253Z,10.20
2022-11-04T02:28:53.959Z,10.20
2022-11-04T02:31:42.933Z,10.30
2022-11-04T02:34:43.045Z,10.30
2022-11-04T02:37:37.022Z,10.30
2022-11-04T02:40:16.693Z,10.30
2022-11-04T02:43:45.653Z,10.40
2022-11-04T02:46:32.958Z,10.30
2022-11-04T02:49:08.024Z,10.30
2022-11-04T02:51:45.680Z,10.30
2022-11-04T02:54:47.786Z,10.40
2022-11-04T02:57:21.946Z,10.40
2022-11-04T02:59:57.593Z,10.30
2022-11-04T03:02:36.443Z,10.30
2022-11-04T03:05:06.092Z,10.30
2022-11-04T03:07:42.715Z,10.20
2022-11-04T03:10:27.526Z,10.20
2022-11-04T03:13:23.855Z,10.30
2022-11-04T03:15:57.383Z,10.30
2022-11-04T03:18:37.937Z,10.30
2022-11-04T03:21:13.261Z,10.40
2022-11-04T03:23:41.283Z,10.40
2022-11-04T03:26:36.164Z,10.40
2022-11-04T03:29:18.339Z,10.50
2022-11-04T03:32:04.489Z,10.50
2022-11-04T03:34:32.100Z,10.50
2022-11-04T03:37:02.773Z,10.40
2022-11-04T03:39:30.369Z,10.50
2022-11-04T03:42:04.472Z,10.50
2022-11-04T03:44:34.348Z,10.50
2022-11-04T03:47:07.419Z,10.50
2022-11-04T03:49:37.322Z,10.40
2022-11-04T03:52:04.521Z,10.40
2022-11-04T03:54:35.898Z,10.40
2022-11-04T03:57:33.563Z,10.50
2022-11-04T04:00:07.071Z,10.50
2022-11-04T04:02:57.511Z,10.40
2022-11-04T04:05:37.083Z,10.40
2022-11-04T04:08:29.256Z,10.40
2022-11-04T04:11:25.718Z,10.30
2022-11-04T04:14:06.726Z,10.30
2022-11-04T04:16:45.514Z,10.20
2022-11-04T04:19:19.292Z,10.20
2022-11-04T04:22:15.661Z,10.20
2022-11-04T04:25:07.720Z,10.20
2022-11-04T04:27:36.063Z,10.10
2022-11-04T04:30:07.105Z,10.10
2022-11-04T04:32:48.408Z,10.00
2022-11-04T04:35:34.283Z,10.00
2022-11-04T04:38:23.249Z,9.90
2022-11-04T04:41:25.133Z,9.90
2022-11-04T04:44:14.208Z,9.90
2022-11-04T04:46:45.403Z,10.00
2022-11-04T04:49:14.014Z,10.00
2022-11-04T04:51:47.345Z,10.00
2022-11-04T04:54:15.261Z,10.00
2022-11-04T04:56:43.645Z,10.00
2022-11-04T04:59:12.130Z,10.00
2022-11-04T05:01:44.546Z,10.00
2022-11-04T05:04:13.005Z,10.00
2022-11-04T05:06:44.615Z,10.00
2022-11-04T05:09:14.083Z,9.90
2022-11-04T05:11:41.228Z,9.90
2022-11-04T05:14:08.360Z,9.80
2022-11-04T05:16:40.540Z,9.70
2022-11-04T05:19:08.876Z,9.70
2022-11-04T05:21:35.909Z,9.60
2022-11-04T05:24:06.034Z,9.50
2022-11-04T05:26:34.600Z,9.40
2022-11-04T05:29:04.524Z,9.40
2022-11-04T05:31:31.777Z,9.30
2022-11-04T05:33:59.967Z,9.20
2022-11-04T05:36:27.152Z,9.20
2022-11-04T05:38:56.900Z,9.20
2022-11-04T05:41:27.184Z,9.10
2022-11-04T05:43:59.143Z,9.10
2022-11-04T05:46:27.226Z,9.10
2022-11-04T05:48:55.146Z,9.10
2022-11-04T05:51:28.079Z,9.10
2022-11-04T05:53:57.975Z,9.10
2022-11-04T05:56:25.122Z,9.10
2022-11-04T05:58:55.421Z,9.00
2022-11-04T06:01:37.286Z,9.00
2022-11-04T06:04:06.089Z,9.00
2022-11-04T06:06:37.191Z,9.00
2022-11-04T06:09:07.154Z,9.00
2022-11-04T06:11:37.784Z,9.10
2022-11-04T06:14:07.120Z,9.10
2022-11-04T06:16:36.695Z,9.20
2022-11-04T06:19:08.580Z,9.30
2022-11-04T06:21:39.274Z,9.30
2022-11-04T06:24:09.129Z,9.30
2022-11-04T06:26:36.171Z,9.40
2022-11-04T06:29:06.301Z,9.40
2022-11-04T06:31:34.273Z,9.40
2022-11-04T06:34:03.798Z,9.40
2022-11-04T06:36:32.242Z,9.40
2022-11-04T06:40:25.028Z,9.30
2022-11-04T06:43:07.097Z,9.30
2022-11-04T06:45:34.537Z,9.20
2022-11-04T06:48:01.632Z,9.10
2022-11-04T06:50:28.669Z,9.10
2022-11-04T06:52:55.644Z,9.10
2022-11-04T06:55:23.034Z,9.10
2022-11-04T06:57:53.633Z,9.10
2022-11-04T07:00:20.730Z,9.10
2022-11-04T07:02:50.240Z,9.10
2022-11-04T07:05:26.869Z,9.00
2022-11-04T07:07:57.031Z,9.00
2022-11-04T07:10:26.401Z,9.00
2022-11-04T07:12:57.121Z,8.90
2022-11-04T07:15:27.696Z,8.90
2022-11-04T07:17:59.481Z,8.90
2022-11-04T07:20:26.737Z,8.90
2022-11-04T07:22:57.271Z,8.80
2022-11-04T07:25:27.448Z,8.80
2022-11-04T07:28:05.023Z,8.80
2022-11-04T07:30:40.848Z,8.80
2022-11-04T07:33:08.394Z,8.90
2022-11-04T07:35:47.375Z,8.80
2022-11-04T07:38:27.613Z,8.80
2022-11-04T07:40:54.749Z,8.70
2022-11-04T07:43:21.701Z,8.80
2022-11-04T07:46:06.649Z,8.80
2022-11-04T07:48:35.850Z,8.80
2022-11-04T07:51:06.522Z,8.80
2022-11-04T07:53:34.203Z,8.80
2022-11-04T07:56:08.414Z,8.80
2022-11-04T07:58:35.370Z,8.90
2022-11-04T08:01:04.299Z,8.90
2022-11-04T08:03:31.520Z,8.90
2022-11-04T08:05:59.542Z,9.00
2022-11-04T08:08:26.978Z,9.00
2022-11-04T08:11:01.643Z,9.00
2022-11-04T08:13:29.517Z,9.10
2022-11-04T08:15:56.868Z,9.10
2022-11-04T08:21:15.303Z,9.20
2022-11-04T08:23:44.583Z,9.20
2022-11-04T08:26:18.224Z,9.20
2022-11-04T08:28:45.687Z,9.30
2022-11-04T08:31:13.065Z,9.40
2022-11-04T08:33:41.107Z,9.40
2022-11-04T08:36:09.615Z,9.40
2022-11-04T08:38:44.493Z,9.50
2022-11-04T08:41:12.159Z,9.50
2022-11-04T08:43:47.748Z,9.50
2022-11-04T08:46:15.161Z,9.60
2022-11-04T08:48:42.296Z,9.50
2022-11-04T08:51:17.114Z,9.50
2022-11-04T08:53:44.127Z,9.50
2022-11-04T08:56:23.683Z,9.60
2022-11-04T08:58:51.184Z,9.60
2022-11-04T09:01:18.969Z,9.60
2022-11-04T09:03:48.290Z,9.70
2022-11-04T09:06:17.938Z,9.70
2022-11-04T09:08:45.580Z,9.70
2022-11-04T09:11:13.865Z,9.80
2022-11-04T09:13:50.061Z,9.90
2022-11-04T09:16:24.623Z,10.00
2022-11-04T09:18:51.680Z,10.10
2022-11-04T09:21:18.549Z,10.20
2022-11-04T09:23:46.736Z,10.30
2022-11-04T09:26:15.908Z,10.40
2022-11-04T09:28:46.178Z,10.50
2022-11-04T09:31:17.478Z,10.50
2022-11-04T09:33:47.900Z,10.60
2022-11-04T09:36:15.122Z,10.60
2022-11-04T09:38:42.721Z,10.60
2022-11-04T09:41:19.379Z,10.60
2022-11-04T09:43:56.873Z,10.70
2022-11-04T09:46:30.377Z,10.70
2022-11-04T09:49:03.886Z,10.80
2022-11-04T09:54:26.998Z,10.90
2022-11-04T09:56:55.584Z,11.00
2022-11-04T09:59:25.578Z,11.10
2022-11-04T10:02:16.475Z,11.10
2022-11-04T10:04:58.435Z,11.10
2022-11-04T10:07:43.942Z,11.10
2022-11-04T10:10:32.293Z,11.10
2022-11-04T10:13:03.445Z,11.10
2022-11-04T10:15:36.620Z,11.10
2022-11-04T10:18:09.614Z,11.10
2022-11-04T10:20:42.625Z,11.10
2022-11-04T10:23:49.218Z,11.10
2022-11-04T10:26:19.347Z,11.20
2022-11-04T10:29:07.132Z,11.20
2022-11-04T10:31:37.060Z,11.30
2022-11-04T10:34:07.616Z,11.40
2022-11-04T10:36:40.931Z,11.40
2022-11-04T10:39:18.403Z,11.40
2022-11-04T10:41:47.665Z,11.40
2022-11-04T10:44:40.805Z,11.50
2022-11-04T10:47:16.938Z,11.50
2022-11-04T10:50:26.615Z,11.50
2022-11-04T10:52:42.827Z,11.60
2022-11-04T10:55:37.764Z,11.70
2022-11-04T10:58:12.815Z,11.80
2022-11-04T11:00:44.399Z,11.80
2022-11-04T11:03:39.060Z,11.80
2022-11-04T11:06:15.290Z,11.80
2022-11-04T11:08:42.987Z,11.80
2022-11-04T11:11:13.102Z,11.70
2022-11-04T11:13:44.480Z,11.80
2022-11-04T11:16:13.075Z,11.80
2022-11-04T11:18:42.515Z,11.80
2022-11-04T11:21:21.308Z,11.90
2022-11-04T11:23:51.239Z,11.90
2022-11-04T11:26:19.656Z,12.00
2022-11-04T11:28:57.433Z,12.00
2022-11-04T11:31:26.795Z,12.10
2022-11-04T11:33:58.682Z,12.20
2022-11-04T11:36:27.020Z,12.10
2022-11-04T11:39:16.475Z,12.10
2022-11-04T11:41:53.309Z,12.10
2022-11-04T11:44:27.480Z,12.10
2022-11-04T11:46:56.856Z,12.20
2022-11-04T11:49:25.405Z,12.30
2022-11-04T11:51:52.451Z,12.40
2022-11-04T11:54:22.967Z,12.40
2022-11-04T11:57:13.880Z,12.40
2022-11-04T12:02:50.050Z,12.50
2022-11-04T12:11:13.624Z,12.80
2022-11-04T12:13:49.036Z,12.90
2022-11-04T12:16:21.230Z,12.90
2022-11-04T12:18:58.443Z,13.00
2022-11-04T12:21:36.061Z,12.90
2022-11-04T12:24:16.468Z,13.00
2022-11-04T12:27:01.855Z,12.90
2022-11-04T12:29:36.268Z,12.90
2022-11-04T12:32:23.382Z,12.90
2022-11-04T12:35:16.528Z,12.90
2022-11-04T12:37:49.486Z,12.90
2022-11-04T12:41:41.937Z,12.90
2022-11-04T12:47:12.680Z,12.90
2022-11-04T12:49:58.666Z,13.00
2022-11-04T12:52:47.639Z,13.00
2022-11-04T12:55:14.398Z,13.00
2022-11-04T12:57:51.224Z,13.00
2022-11-04T13:00:21.355Z,12.90
2022-11-04T13:02:54.521Z,12.90
2022-11-04T13:05:21.297Z,12.90
2022-11-04T13:07:58.290Z,12.90
2022-11-04T13:10:40.702Z,12.90
2022-11-04T13:13:08.924Z,12.90
2022-11-04T13:15:40.947Z,12.90
2022-11-04T13:18:13.830Z,12.90
2022-11-04T13:20:45.653Z,12.90
2022-11-04T13:23:17.467Z,12.90
2022-11-04T13:25:45.189Z,13.00
2022-11-04T13:28:19.927Z,13.00
2022-11-04T13:31:11.549Z,13.00
2022-11-04T13:33:57.524Z,13.00
2022-11-04T13:36:24.480Z,13.00
2022-11-04T13:38:56.955Z,13.00
2022-11-04T13:41:32.953Z,12.90
2022-11-04T13:44:01.585Z,12.90
2022-11-04T13:46:30.595Z,12.80
2022-11-04T13:48:57.601Z,12.80
2022-11-04T13:51:33.947Z,12.80
2022-11-04T13:54:00.785Z,12.80
2022-11-04T13:56:33.452Z,12.80
2022-11-04T13:59:04.565Z,12.80
2022-11-04T14:01:32.771Z,12.70
2022-11-04T14:04:18.288Z,12.70
2022-11-04T14:06:49.802Z,12.60
2022-11-04T14:09:37.444Z,12.60
2022-11-04T14:12:10.352Z,12.60
2022-11-04T14:14:40.592Z,12.60
2022-11-04T14:17:34.011Z,12.60
2022-11-04T14:20:12.089Z,12.60
2022-11-04T14:22:57.946Z,12.60
2022-11-04T14:25:24.984Z,12.60
2022-11-04T14:27:53.230Z,12.60
2022-11-04T14:30:44.571Z,12.60
2022-11-04T14:33:40.037Z,12.60
2022-11-04T14:36:19.253Z,12.60
2022-11-04T14:38:53.380Z,12.50
2022-11-04T14:41:31.987Z,12.50
2022-11-04T14:44:00.485Z,12.50
2022-11-04T14:46:32.766Z,12.50
2022-11-04T14:49:02.282Z,12.50
2022-11-04T14:51:30.597Z,12.50
2022-11-04T14:54:11.502Z,12.50
2022-11-04T14:56:40.542Z,12.50
2022-11-04T14:59:09.848Z,12.40
2022-11-04T15:01:40.452Z,12.40
2022-11-04T15:04:21.588Z,12.30
2022-11-04T15:06:55.533Z,12.20
2022-11-04T15:09:24.877Z,12.00
2022-11-04T15:12:33.893Z,11.80
2022-11-04T15:15:00.903Z,11.60
2022-11-04T15:17:29.647Z,11.30
2022-11-04T15:19:59.697Z,11.10
2022-11-04T15:22:27.226Z,10.90
2022-11-04T15:24:54.888Z,10.80
2022-11-04T15:27:27.066Z,10.60
2022-11-04T15:29:58.821Z,10.50
2022-11-04T15:32:28.417Z,10.50
2022-11-04T15:34:55.884Z,10.40
2022-11-04T15:37:24.201Z,10.50
2022-11-04T15:39:52.262Z,10.50
2022-11-04T15:42:43.804Z,10.50
2022-11-04T15:45:23.119Z,10.50
2022-11-04T15:48:09.955Z,10.50
2022-11-04T15:50:37.233Z,10.50
2022-11-04T15:53:09.738Z,10.50
2022-11-04T15:55:38.019Z,10.40
2022-11-04T15:58:09.758Z,10.40
2022-11-04T16:00:36.860Z,10.40
2022-11-04T16:03:04.250Z,10.50
2022-11-04T16:05:36.836Z,10.40
2022-11-04T16:08:28.475Z,10.40
2022-11-04T16:11:13.011Z,10.40
2022-11-04T16:13:40.427Z,10.40
2022-11-04T16:16:26.873Z,10.40
2022-11-04T16:18:55.621Z,10.40
2022-11-04T16:21:29.171Z,10.30
2022-11-04T16:23:59.360Z,10.30
2022-11-04T16:26:40.307Z,10.30
2022-11-04T16:29:09.343Z,10.30
2022-11-04T16:31:37.026Z,10.30
2022-11-04T16:34:55.627Z,10.20
2022-11-04T16:37:25.504Z,10.20
2022-11-04T16:39:52.321Z,10.20
2022-11-04T16:43:09.167Z,10.10
2022-11-04T16:45:30.235Z,10.10
2022-11-04T16:48:06.595Z,10.10
2022-11-04T16:50:34.840Z,10.10
2022-11-04T16:54:06.762Z,10.00
2022-11-04T17:00:29.011Z,9.90
2022-11-04T17:02:58.552Z,9.90
2022-11-04T17:05:25.776Z,9.90
2022-11-04T17:07:55.525Z,9.90
2022-11-04T17:10:27.166Z,9.90
2022-11-04T17:12:56.892Z,9.90
2022-11-04T17:15:26.469Z,9.90
2022-11-04T17:18:06.163Z,9.80
2022-11-04T17:20:36.312Z,9.80
2022-11-04T17:23:14.738Z,9.80
2022-11-04T17:25:44.748Z,9.80
2022-11-04T17:28:11.780Z,9.80
2022-11-04T17:31:02.147Z,9.70
2022-11-04T17:33:35.815Z,9.70
2022-11-04T17:36:07.504Z,9.80
2022-11-04T17:39:20.478Z,9.70
2022-11-04T17:42:06.956Z,9.70
2022-11-04T17:45:01.630Z,9.70
2022-11-04T17:47:49.821Z,9.70
2022-11-04T17:50:48.933Z,9.70
2022-11-04T17:56:59.597Z,9.70
2022-11-04T18:00:27.114Z,9.70
2022-11-04T18:03:35.623Z,9.70
2022-11-04T18:06:06.930Z,9.60
2022-11-04T18:08:56.191Z,9.70
2022-11-04T18:11:43.052Z,9.60
2022-11-04T18:14:17.116Z,9.60
2022-11-04T18:16:45.984Z,9.60
2022-11-04T18:19:16.265Z,9.60
2022-11-04T18:21:43.303Z,9.70
2022-11-04T18:24:16.273Z,9.60
2022-11-04T18:26:44.044Z,9.60
2022-11-04T18:29:11.331Z,9.60
2022-11-04T18:31:46.091Z,9.60
2022-11-04T18:34:18.152Z,9.60
2022-11-04T18:36:49.499Z,9.60
2022-11-04T18:39:34.310Z,9.50
2022-11-04T18:42:29.939Z,9.60
2022-11-04T18:44:57.116Z,9.50
2022-11-04T18:47:24.236Z,9.60
2022-11-04T18:49:51.086Z,9.50
2022-11-04T18:52:18.526Z,9.50
2022-11-04T18:54:46.394Z,9.60
2022-11-04T18:57:13.567Z,9.60
2022-11-04T18:59:42.128Z,9.50
2022-11-04T19:02:13.822Z,9.50
2022-11-04T19:04:40.887Z,9.50
2022-11-04T19:07:07.872Z,9.50
2022-11-04T19:09:50.207Z,9.50
2022-11-04T19:12:35.989Z,9.40
2022-11-04T19:15:16.159Z,9.40
2022-11-04T19:17:52.235Z,9.40
2022-11-04T19:20:19.388Z,9.40
2022-11-04T19:22:47.661Z,9.40
2022-11-04T19:25:14.790Z,9.40
2022-11-04T19:27:42.151Z,9.30
2022-11-04T19:30:09.560Z,9.30
2022-11-04T19:32:39.376Z,9.20
2022-11-04T19:35:13.856Z,9.20
2022-11-04T19:37:40.894Z,9.20
2022-11-04T19:40:12.920Z,9.10
2022-11-04T19:42:58.780Z,9.00
2022-11-04T19:45:25.648Z,9.00
2022-11-04T19:47:52.568Z,8.90
2022-11-04T19:50:19.784Z,8.90
2022-11-04T19:52:49.985Z,8.80
2022-11-04T19:55:17.254Z,8.80
2022-11-04T19:57:44.452Z,8.70
2022-11-04T20:00:16.439Z,8.70
2022-11-04T20:02:56.731Z,8.70
2022-11-04T20:09:32.406Z,8.60
2022-11-04T20:12:20.745Z,8.50
2022-11-04T20:14:47.724Z,8.50
2022-11-04T20:17:14.629Z,8.40
2022-11-04T20:19:41.582Z,8.40
2022-11-04T20:22:17.773Z,8.40
2022-11-04T20:28:34.719Z,8.30
2022-11-04T20:31:12.109Z,8.30
2022-11-04T20:33:42.488Z,8.20
2022-11-04T20:36:30.260Z,8.20
2022-11-04T20:39:36.018Z,8.20
2022-11-04T20:42:33.411Z,8.20
2022-11-04T20:45:21.314Z,8.20
2022-11-04T20:48:00.723Z,8.20
2022-11-04T20:51:04.772Z,8.10
2022-11-04T20:54:06.854Z,8.10
2022-11-04T21:00:05.141Z,8.10
2022-11-04T21:02:36.042Z,8.10
2022-11-04T21:05:05.980Z,8.00
2022-11-04T21:07:51.263Z,8.00
2022-11-04T21:10:20.653Z,8.00
2022-11-04T21:12:47.676Z,8.00
2022-11-04T21:15:34.541Z,7.90
2022-11-04T21:18:01.843Z,7.90
2022-11-04T21:20:34.829Z,7.90
2022-11-04T21:23:01.743Z,7.90
2022-11-04T21:25:28.556Z,7.90
2022-11-04T21:27:56.322Z,7.80
2022-11-04T21:30:31.910Z,7.80
2022-11-04T21:33:00.172Z,7.80
2022-11-04T21:35:27.090Z,7.80
2022-11-04T21:37:53.945Z,7.80
2022-11-04T21:40:25.962Z,7.70
2022-11-04T21:43:09.981Z,7.70
2022-11-04T21:45:42.420Z,7.70
2022-11-04T21:48:09.960Z,7.70
2022-11-04T21:50:42.792Z,7.70
2022-11-04T21:53:09.753Z,7.60
2022-11-04T21:55:36.736Z,7.60
2022-11-04T21:58:06.258Z,7.60
2022-11-04T22:00:36.420Z,7.50
2022-11-04T22:03:03.818Z,7.50
2022-11-04T22:05:30.794Z,7.50
2022-11-04T22:08:16.532Z,7.50
2022-11-04T22:10:46.053Z,7.40
2022-11-04T22:13:13.301Z,7.50
2022-11-04T22:15:58.769Z,7.40
2022-11-04T22:18:26.455Z,7.40
2022-11-04T22:20:53.397Z,7.40
2022-11-04T22:23:20.476Z,7.40
2022-11-04T22:25:52.776Z,7.40
2022-11-04T22:28:19.720Z,7.30
2022-11-04T22:30:46.871Z,7.30
2022-11-04T22:33:13.941Z,7.30
2022-11-04T22:35:44.462Z,7.30
2022-11-04T22:38:11.719Z,7.20
2022-11-04T22:40:38.880Z,7.30
2022-11-04T22:43:05.722Z,7.20
2022-11-04T22:45:32.802Z,7.20
2022-11-04T22:47:59.616Z,7.20
2022-11-04T22:50:26.545Z,7.30
2022-11-04T22:52:53.593Z,7.20
2022-11-04T22:55:20.501Z,7.30
2022-11-04T22:57:47.486Z,7.30
2022-11-04T23:00:16.878Z,7.20
2022-11-04T23:02:44.359Z,7.20
2022-11-04T23:05:11.348Z,7.20
2022-11-04T23:07:40.537Z,7.20
2022-11-04T23:10:30.594Z,7.20
2022-11-04T23:13:16.122Z,7.20
2022-11-04T23:16:01.636Z,7.20
2022-11-04T23:18:43.832Z,7.20
2022-11-04T23:21:30.317Z,7.20
2022-11-04T23:24:21.830Z,7.10
2022-11-04T23:26:48.801Z,7.10
2022-11-04T23:29:37.254Z,7.10
2022-11-04T23:32:04.309Z,7.10
2022-11-04T23:34:50.038Z,7.10
2022-11-04T23:37:17.013Z,7.00
2022-11-04T23:39:45.512Z,7.00
2022-11-04T23:42:16.938Z,7.00
2022-11-04T23:45:06.693Z,7.00
2022-11-04T23:47:53.317Z,7.10
2022-11-04T23:50:39.584Z,7.10
2022-11-04T23:53:25.296Z,7.20
2022-11-04T23:56:11.680Z,7.20
2022-11-04T23:58:57.280Z,7.30
